Time;durP1;ratioP1;P1;durP2;ratioP2;P2;SDS_P1;SDS_P2;PMS_P1;PMS_P2;Temp;Humidity;BMP_temperature;BMP_pressure;BME280_temperature;BME280_humidity;BME280_pressure;Samples;Min_cycle;Max_cycle;Signal;HPM_P1;HPM_P2
2023/03/05 00:01:57;;;;;;;5.00;1.60;;;;;;;;;;4937781;28;20612;-88
2023/03/05 00:04:27;;;;;;;4.03;1.70;;;;;;;;;;4924340;28;20225;-86
2023/03/05 00:06:54;;;;;;;2.97;1.43;;;;;;;;;;4950329;28;20270;-86
2023/03/05 00:09:20;;;;;;;3.23;1.30;;;;;;;;;;4940026;28;20609;-88
2023/03/05 00:11:45;;;;;;;4.80;1.70;;;;;;;;;;4963210;28;20214;-86
2023/03/05 00:14:11;;;;;;;4.43;1.47;;;;;;;;;;4948042;28;20309;-86
2023/03/05 00:16:36;;;;;;;2.93;1.40;;;;;;;;;;4962207;28;20234;-87
2023/03/05 00:19:07;;;;;;;4.20;1.50;;;;;;;;;;4933797;28;20218;-85
2023/03/05 00:21:34;;;;;;;3.57;1.47;;;;;;;;;;4940820;28;20224;-88
2023/03/05 00:24:00;;;;;;;4.43;1.53;;;;;;;;;;4916542;29;20214;-87
2023/03/05 00:26:27;;;;;;;3.93;1.60;;;;;;;;;;4932347;28;20239;-88
2023/03/05 00:28:53;;;;;;;3.27;1.67;;;;;;;;;;4963588;28;20237;-85
2023/03/05 00:31:29;;;;;;;4.30;1.47;;;;;;;;;;4945913;28;20310;-87
2023/03/05 00:33:59;;;;;;;6.37;2.00;;;;;;;;;;4957162;28;20278;-88
2023/03/05 00:36:25;;;;;;;5.40;1.60;;;;;;;;;;4929693;28;20304;-88
2023/03/05 00:38:51;;;;;;;3.60;1.70;;;;;;;;;;4927825;29;20265;-87
2023/03/05 00:41:19;;;;;;;4.53;1.90;;;;;;;;;;4950716;28;20222;-85
2023/03/05 00:43:48;;;;;;;4.33;1.60;;;;;;;;;;4925178;28;20218;-89
2023/03/05 00:46:13;;;;;;;6.50;1.80;;;;;;;;;;4946708;28;20252;-87
2023/03/05 00:48:41;;;;;;;7.23;1.70;;;;;;;;;;4941920;29;20249;-88
2023/03/05 00:51:13;;;;;;;4.47;1.60;;;;;;;;;;4968962;28;20601;-88
2023/03/05 00:53:39;;;;;;;4.20;1.53;;;;;;;;;;4924260;28;20301;-85
2023/03/05 00:56:05;;;;;;;2.57;1.43;;;;;;;;;;4959117;28;20574;-86
2023/03/05 00:58:33;;;;;;;2.70;1.37;;;;;;;;;;4959219;28;20215;-85
2023/03/05 01:00:59;;;;;;;4.77;1.67;;;;;;;;;;4947654;29;20218;-83
2023/03/05 01:03:25;;;;;;;5.23;1.63;;;;;;;;;;4966980;28;20865;-86
2023/03/05 01:05:50;;;;;;;3.87;1.67;;;;;;;;;;5004958;28;20236;-86
2023/03/05 01:08:16;;;;;;;4.10;2.00;;;;;;;;;;4950967;28;20210;-82
2023/03/05 01:10:42;;;;;;;4.77;2.13;;;;;;;;;;4963738;28;20254;-84
2023/03/05 01:13:12;;;;;;;10.20;3.00;;;;;;;;;;4953137;28;20249;-81
2023/03/05 01:15:37;;;;;;;7.30;3.10;;;;;;;;;;4957692;28;20237;-83
2023/03/05 01:18:05;;;;;;;7.10;2.73;;;;;;;;;;4938350;28;20238;-81
2023/03/05 01:20:30;;;;;;;3.93;2.73;;;;;;;;;;4955385;28;20230;-84
2023/03/05 01:23:00;;;;;;;5.87;2.90;;;;;;;;;;4937151;28;20202;-87
2023/03/05 01:25:26;;;;;;;5.90;2.70;;;;;;;;;;4969335;28;20227;-86
2023/03/05 01:27:51;;;;;;;6.13;2.83;;;;;;;;;;4943278;28;20216;-86
2023/03/05 01:30:22;;;;;;;5.43;3.20;;;;;;;;;;4955061;28;20269;-83
2023/03/05 01:32:47;;;;;;;7.40;3.50;;;;;;;;;;4950982;28;20222;-86
2023/03/05 01:35:18;;;;;;;5.77;3.70;;;;;;;;;;4942205;28;20291;-83
2023/03/05 01:37:46;;;;;;;5.77;3.47;;;;;;;;;;4939832;28;20252;-85
2023/03/05 01:40:13;;;;;;;8.80;3.90;;;;;;;;;;4943090;28;20218;-85
2023/03/05 01:42:39;;;;;;;6.57;4.10;;;;;;;;;;4941102;28;20581;-88
2023/03/05 01:45:10;;;;;;;10.30;4.37;;;;;;;;;;4924002;28;20219;-89
2023/03/05 01:47:38;;;;;;;7.50;4.77;;;;;;;;;;4954324;28;20219;-86
2023/03/05 01:50:05;;;;;;;6.73;4.90;;;;;;;;;;4948144;28;20232;-88
2023/03/05 01:52:34;;;;;;;9.33;5.93;;;;;;;;;;4940861;28;20725;-85
2023/03/05 01:55:06;;;;;;;7.97;6.50;;;;;;;;;;4956110;28;20226;-81
2023/03/05 01:57:34;;;;;;;9.10;7.00;;;;;;;;;;4941481;28;20236;-85
2023/03/05 02:00:08;;;;;;;16.30;7.53;;;;;;;;;;4971183;28;20226;-84
2023/03/05 02:02:38;;;;;;;12.80;7.60;;;;;;;;;;4931324;28;20226;-85
2023/03/05 02:05:09;;;;;;;12.87;8.33;;;;;;;;;;4928269;28;20226;-86
2023/03/05 02:07:41;;;;;;;9.00;7.87;;;;;;;;;;4943945;28;20220;-84
2023/03/05 02:10:21;;;;;;;11.23;8.07;;;;;;;;;;4937554;28;20242;-85
2023/03/05 02:12:47;;;;;;;11.10;8.40;;;;;;;;;;4919204;28;20714;-87
2023/03/05 02:15:13;;;;;;;9.50;8.47;;;;;;;;;;4952684;28;20214;-87
2023/03/05 02:17:39;;;;;;;9.60;7.87;;;;;;;;;;4933132;28;20246;-86
2023/03/05 02:20:09;;;;;;;9.70;7.03;;;;;;;;;;4939845;28;20222;-87
2023/03/05 02:22:40;;;;;;;10.13;6.37;;;;;;;;;;4933103;28;20202;-89
2023/03/05 02:25:22;;;;;;;9.53;6.67;;;;;;;;;;4960074;28;20279;-89
2023/03/05 02:28:12;;;;;;;7.10;5.67;;;;;;;;;;4935626;28;20232;-86
2023/03/05 02:30:37;;;;;;;9.53;5.40;;;;;;;;;;4943952;28;20230;-87
2023/03/05 02:33:04;;;;;;;5.90;4.47;;;;;;;;;;4947409;28;20210;-85
2023/03/05 02:35:32;;;;;;;7.33;4.87;;;;;;;;;;4941634;28;20695;-88
2023/03/05 02:38:01;;;;;;;6.20;4.23;;;;;;;;;;4959352;28;20248;-85
2023/03/05 02:40:27;;;;;;;7.30;3.77;;;;;;;;;;4949040;28;20230;-88
2023/03/05 02:42:58;;;;;;;7.30;3.87;;;;;;;;;;4940041;28;20226;-88
2023/03/05 02:45:25;;;;;;;6.33;4.20;;;;;;;;;;4931701;28;20427;-88
2023/03/05 02:47:54;;;;;;;4.17;3.70;;;;;;;;;;4951670;28;20226;-87
2023/03/05 02:50:20;;;;;;;5.60;3.20;;;;;;;;;;4954036;28;20244;-88
2023/03/05 02:52:48;;;;;;;5.90;3.47;;;;;;;;;;4940061;29;20285;-86
2023/03/05 02:55:17;;;;;;;5.20;3.20;;;;;;;;;;4959116;28;20233;-86
2023/03/05 02:57:43;;;;;;;5.33;3.07;;;;;;;;;;4949310;28;20284;-87
2023/03/05 03:00:11;;;;;;;5.83;2.83;;;;;;;;;;4941452;28;20225;-84
2023/03/05 03:02:36;;;;;;;3.23;2.37;;;;;;;;;;4942372;28;20214;-88
2023/03/05 03:05:02;;;;;;;4.53;2.77;;;;;;;;;;4949315;28;20280;-86
2023/03/05 03:07:27;;;;;;;5.07;2.43;;;;;;;;;;4932595;29;20680;-86
2023/03/05 03:09:55;;;;;;;3.73;2.80;;;;;;;;;;4914337;28;20229;-87
2023/03/05 03:12:21;;;;;;;3.60;2.80;;;;;;;;;;4935969;28;20226;-88
2023/03/05 03:14:51;;;;;;;3.23;2.93;;;;;;;;;;4954448;28;20246;-86
2023/03/05 03:17:19;;;;;;;2.63;2.43;;;;;;;;;;4932835;28;20310;-88
2023/03/05 03:19:45;;;;;;;4.63;3.20;;;;;;;;;;4921045;28;20218;-87
2023/03/05 03:22:16;;;;;;;5.90;3.23;;;;;;;;;;4936238;28;20243;-88
2023/03/05 03:24:42;;;;;;;4.23;3.33;;;;;;;;;;4928389;28;20229;-88
2023/03/05 03:27:07;;;;;;;4.30;3.87;;;;;;;;;;4952909;28;20684;-87
2023/03/05 03:29:33;;;;;;;7.80;3.63;;;;;;;;;;4935332;28;20427;-88
2023/03/05 03:31:58;;;;;;;4.47;3.63;;;;;;;;;;4955101;28;20879;-89
2023/03/05 03:34:26;;;;;;;5.50;3.73;;;;;;;;;;4949033;28;20601;-87
2023/03/05 03:36:57;;;;;;;4.13;3.50;;;;;;;;;;4931017;28;20222;-86
2023/03/05 03:39:24;;;;;;;4.17;3.10;;;;;;;;;;4947465;28;20233;-85
2023/03/05 03:41:50;;;;;;;3.43;2.80;;;;;;;;;;4964507;28;20219;-84
2023/03/05 03:44:21;;;;;;;8.50;3.10;;;;;;;;;;4948439;28;20247;-88
2023/03/05 03:46:50;;;;;;;4.67;2.90;;;;;;;;;;4960163;28;20234;-85
2023/03/05 03:49:18;;;;;;;4.70;2.90;;;;;;;;;;4941094;28;20222;-88
2023/03/05 03:51:43;;;;;;;4.20;2.57;;;;;;;;;;4945394;28;20227;-89
2023/03/05 03:54:09;;;;;;;5.90;2.43;;;;;;;;;;4951023;28;20233;-84
2023/03/05 03:56:37;;;;;;;2.53;2.33;;;;;;;;;;4953177;28;20206;-86
2023/03/05 03:59:04;;;;;;;4.40;2.70;;;;;;;;;;4968204;28;20230;-87
2023/03/05 04:01:30;;;;;;;2.50;2.30;;;;;;;;;;4952798;28;20317;-87
2023/03/05 04:03:58;;;;;;;4.30;2.57;;;;;;;;;;4945087;29;20223;-86
2023/03/05 04:06:23;;;;;;;3.87;2.77;;;;;;;;;;4960602;28;20707;-86
2023/03/05 04:08:49;;;;;;;3.07;2.77;;;;;;;;;;4959761;28;20207;-85
2023/03/05 04:11:14;;;;;;;4.93;2.57;;;;;;;;;;4966514;28;20221;-85
2023/03/05 04:13:42;;;;;;;4.17;2.80;;;;;;;;;;4950423;28;20232;-88
2023/03/05 04:16:08;;;;;;;3.30;2.70;;;;;;;;;;4950498;28;20229;-86
2023/03/05 04:18:33;;;;;;;5.93;3.33;;;;;;;;;;4941060;28;20742;-89
2023/03/05 04:20:59;;;;;;;4.73;3.60;;;;;;;;;;4945819;28;20679;-88
2023/03/05 04:23:24;;;;;;;3.80;3.40;;;;;;;;;;4940639;28;20227;-86
2023/03/05 04:25:55;;;;;;;5.03;3.80;;;;;;;;;;4930403;28;20476;-89
2023/03/05 04:28:20;;;;;;;4.43;3.63;;;;;;;;;;4927464;28;20219;-88
2023/03/05 04:30:46;;;;;;;4.20;3.80;;;;;;;;;;4928516;28;20222;-87
2023/03/05 04:33:14;;;;;;;4.63;4.00;;;;;;;;;;4935916;28;20704;-89
2023/03/05 04:35:42;;;;;;;5.53;4.17;;;;;;;;;;4955846;28;20222;-88
2023/03/05 04:38:10;;;;;;;4.80;4.33;;;;;;;;;;4948054;28;20222;-88
2023/03/05 04:40:38;;;;;;;4.93;4.30;;;;;;;;;;4927329;28;20228;-86
2023/03/05 04:43:04;;;;;;;7.60;5.03;;;;;;;;;;4925898;28;20251;-86
2023/03/05 04:45:29;;;;;;;6.77;4.50;;;;;;;;;;4985892;28;20232;-89
2023/03/05 04:47:55;;;;;;;5.57;4.93;;;;;;;;;;4932317;29;20218;-87
2023/03/05 04:50:25;;;;;;;6.37;5.67;;;;;;;;;;4963915;28;20230;-87
2023/03/05 04:52:55;;;;;;;6.60;5.20;;;;;;;;;;4932244;29;20352;-89
2023/03/05 04:55:26;;;;;;;5.80;5.20;;;;;;;;;;4941107;28;20264;-88
2023/03/05 04:57:54;;;;;;;6.93;6.00;;;;;;;;;;4945730;28;20224;-88
2023/03/05 05:00:20;;;;;;;7.30;6.30;;;;;;;;;;4965090;28;20296;-88
2023/03/05 05:02:49;;;;;;;8.33;6.47;;;;;;;;;;4941206;28;20276;-86
2023/03/05 05:05:16;;;;;;;7.57;6.87;;;;;;;;;;4913826;28;20238;-87
2023/03/05 05:07:44;;;;;;;8.27;7.53;;;;;;;;;;4938516;28;20219;-88
2023/03/05 05:10:10;;;;;;;8.33;7.13;;;;;;;;;;4936784;28;20435;-88
2023/03/05 05:12:36;;;;;;;7.70;6.97;;;;;;;;;;4936638;28;20312;-88
2023/03/05 05:15:03;;;;;;;7.93;6.73;;;;;;;;;;4944180;29;20681;-89
2023/03/05 05:17:32;;;;;;;9.93;7.77;;;;;;;;;;4946285;28;20221;-89
2023/03/05 05:20:03;;;;;;;9.07;7.70;;;;;;;;;;4972384;28;20206;-87
2023/03/05 05:22:29;;;;;;;9.63;7.47;;;;;;;;;;4959198;28;20230;-87
2023/03/05 05:24:54;;;;;;;8.87;7.63;;;;;;;;;;4951622;28;20229;-88
2023/03/05 05:27:20;;;;;;;10.37;7.73;;;;;;;;;;4946640;28;20770;-88
2023/03/05 05:29:49;;;;;;;7.80;7.00;;;;;;;;;;4941663;28;20268;-87
2023/03/05 05:32:18;;;;;;;7.30;6.63;;;;;;;;;;4941930;28;20749;-89
2023/03/05 05:34:46;;;;;;;8.63;6.27;;;;;;;;;;4939042;29;20226;-86
2023/03/05 05:37:14;;;;;;;6.73;6.17;;;;;;;;;;4920027;28;20776;-88
2023/03/05 05:39:40;;;;;;;6.93;5.80;;;;;;;;;;4954666;28;20221;-87
2023/03/05 05:42:06;;;;;;;8.03;6.30;;;;;;;;;;4954542;28;20219;-89
2023/03/05 05:44:33;;;;;;;6.47;5.97;;;;;;;;;;4970816;28;20225;-87
2023/03/05 05:47:01;;;;;;;7.27;6.57;;;;;;;;;;4964478;28;21032;-88
2023/03/05 05:49:27;;;;;;;7.70;6.90;;;;;;;;;;4938260;28;20233;-87
2023/03/05 05:51:52;;;;;;;8.43;7.10;;;;;;;;;;4916315;28;20215;-85
2023/03/05 05:54:18;;;;;;;7.50;6.90;;;;;;;;;;4923359;28;20889;-88
2023/03/05 05:56:46;;;;;;;7.63;6.93;;;;;;;;;;4940610;28;20214;-89
2023/03/05 05:59:11;;;;;;;8.03;6.70;;;;;;;;;;4926224;28;20244;-88
2023/03/05 06:01:39;;;;;;;7.60;7.00;;;;;;;;;;4944930;28;20221;-88
2023/03/05 06:04:04;;;;;;;7.17;6.60;;;;;;;;;;4946135;28;20650;-89
2023/03/05 06:06:30;;;;;;;6.87;6.23;;;;;;;;;;4944521;28;20257;-88
2023/03/05 06:08:56;;;;;;;7.23;6.53;;;;;;;;;;4935624;28;20687;-87
2023/03/05 06:11:23;;;;;;;6.97;6.37;;;;;;;;;;4952621;28;20225;-84
2023/03/05 06:13:51;;;;;;;6.30;5.80;;;;;;;;;;4965519;28;20224;-86
2023/03/05 06:16:19;;;;;;;6.70;5.83;;;;;;;;;;4949809;28;20233;-88
2023/03/05 06:18:44;;;;;;;6.37;5.87;;;;;;;;;;4985493;28;20225;-88
2023/03/05 06:21:13;;;;;;;6.53;5.93;;;;;;;;;;4942216;28;20289;-87
2023/03/05 06:23:39;;;;;;;7.43;6.77;;;;;;;;;;4946368;29;20218;-87
2023/03/05 06:26:11;;;;;;;6.67;6.00;;;;;;;;;;4951581;28;20237;-88
2023/03/05 06:28:39;;;;;;;7.20;6.40;;;;;;;;;;4949133;28;20737;-89
2023/03/05 06:31:15;;;;;;;6.90;6.23;;;;;;;;;;4964117;28;20221;-88
2023/03/05 06:33:43;;;;;;;8.83;5.90;;;;;;;;;;4982340;28;20718;-86
2023/03/05 06:36:10;;;;;;;6.00;5.50;;;;;;;;;;4926388;28;20237;-88
2023/03/05 06:38:38;;;;;;;6.80;6.10;;;;;;;;;;4967525;28;20229;-88
2023/03/05 06:41:08;;;;;;;6.33;5.83;;;;;;;;;;4943291;28;20223;-88
2023/03/05 06:43:34;;;;;;;5.73;5.13;;;;;;;;;;4962052;28;20228;-88
2023/03/05 06:46:01;;;;;;;5.40;4.90;;;;;;;;;;4930080;28;20269;-88
2023/03/05 06:48:29;;;;;;;5.07;4.67;;;;;;;;;;4945316;28;20219;-89
2023/03/05 06:50:54;;;;;;;4.97;4.47;;;;;;;;;;4964081;28;20231;-87
2023/03/05 06:53:20;;;;;;;4.70;4.30;;;;;;;;;;4947757;28;20223;-88
2023/03/05 06:55:46;;;;;;;8.47;6.70;;;;;;;;;;4947802;28;20837;-87
2023/03/05 06:58:13;;;;;;;5.27;4.77;;;;;;;;;;4955880;28;20225;-86
2023/03/05 07:00:44;;;;;;;6.40;5.80;;;;;;;;;;4937210;28;20221;-87
2023/03/05 07:03:10;;;;;;;8.13;7.13;;;;;;;;;;4942654;28;20219;-86
2023/03/05 07:05:42;;;;;;;8.83;8.03;;;;;;;;;;4962273;28;20285;-86
2023/03/05 07:08:10;;;;;;;8.33;7.63;;;;;;;;;;4950596;28;20250;-88
2023/03/05 07:10:39;;;;;;;8.47;7.63;;;;;;;;;;4929999;28;20313;-88
2023/03/05 07:13:08;;;;;;;11.38;10.18;;;;;;;;;;4942268;28;20434;-89
2023/03/05 07:15:33;;;;;;;9.33;8.33;;;;;;;;;;4928169;28;20663;-89
2023/03/05 07:17:59;;;;;;;9.90;8.50;;;;;;;;;;4982240;28;20214;-88
2023/03/05 07:20:25;;;;;;;9.20;8.17;;;;;;;;;;4948054;28;20226;-87
2023/03/05 07:22:50;;;;;;;9.13;8.23;;;;;;;;;;4944598;28;20662;-88
2023/03/05 07:25:20;;;;;;;9.43;8.53;;;;;;;;;;4954406;28;20254;-87
2023/03/05 07:27:46;;;;;;;9.90;8.53;;;;;;;;;;4923336;28;20229;-88
2023/03/05 07:30:12;;;;;;;8.63;7.67;;;;;;;;;;4953407;28;20230;-88
2023/03/05 07:32:38;;;;;;;9.60;8.47;;;;;;;;;;4938909;28;20222;-88
2023/03/05 07:35:04;;;;;;;7.43;5.87;;;;;;;;;;4936367;28;20293;-89
2023/03/05 07:37:29;;;;;;;6.70;6.10;;;;;;;;;;4951432;28;20217;-88
2023/03/05 07:39:55;;;;;;;7.33;6.13;;;;;;;;;;4954231;28;20280;-88
2023/03/05 07:42:21;;;;;;;5.63;4.83;;;;;;;;;;4929614;28;20742;-88
2023/03/05 07:44:54;;;;;;;5.53;5.03;;;;;;;;;;4948768;28;20222;-89
2023/03/05 07:47:20;;;;;;;5.83;4.70;;;;;;;;;;4948902;28;20579;-89
2023/03/05 07:49:45;;;;;;;6.40;4.13;;;;;;;;;;4950217;28;20249;-90
2023/03/05 07:52:11;;;;;;;4.87;3.33;;;;;;;;;;4957570;28;20275;-89
2023/03/05 07:54:42;;;;;;;7.33;3.53;;;;;;;;;;4942641;28;20309;-90
2023/03/05 07:57:11;;;;;;;4.30;2.70;;;;;;;;;;4961537;28;20237;-89
2023/03/05 07:59:37;;;;;;;5.40;2.47;;;;;;;;;;4932675;28;20296;-88
2023/03/05 08:02:02;;;;;;;2.53;2.10;;;;;;;;;;4948796;28;20257;-89
2023/03/05 08:04:30;;;;;;;4.60;1.80;;;;;;;;;;4942053;29;20230;-88
2023/03/05 08:07:02;;;;;;;1.90;1.53;;;;;;;;;;4972474;28;20206;-88
2023/03/05 08:09:33;;;;;;;1.50;1.40;;;;;;;;;;4933829;28;20238;-88
2023/03/05 08:11:58;;;;;;;4.23;1.67;;;;;;;;;;4941375;29;20461;-88
2023/03/05 08:14:24;;;;;;;1.77;1.30;;;;;;;;;;4924863;28;20267;-86
2023/03/05 08:16:54;;;;;;;1.20;1.10;;;;;;;;;;4955950;28;20362;-87
2023/03/05 08:19:20;;;;;;;2.13;1.43;;;;;;;;;;4942527;28;20238;-88
2023/03/05 08:21:45;;;;;;;1.37;1.20;;;;;;;;;;4953396;28;20217;-89
2023/03/05 08:24:15;;;;;;;1.10;0.97;;;;;;;;;;4953127;28;20258;-87
2023/03/05 08:26:43;;;;;;;3.83;1.33;;;;;;;;;;4943761;28;20249;-88
2023/03/05 08:29:09;;;;;;;2.40;0.80;;;;;;;;;;4942110;28;20234;-90
2023/03/05 08:31:35;;;;;;;1.17;0.90;;;;;;;;;;4975546;28;20246;-88
2023/03/05 08:34:03;;;;;;;1.33;1.00;;;;;;;;;;4942848;28;20246;-87
2023/03/05 08:36:31;;;;;;;2.87;2.00;;;;;;;;;;4966986;28;20564;-87
2023/03/05 08:38:58;;;;;;;1.10;1.00;;;;;;;;;;4983343;28;20211;-88
2023/03/05 08:41:24;;;;;;;2.47;2.10;;;;;;;;;;4930557;28;20223;-86
2023/03/05 08:43:49;;;;;;;2.27;1.43;;;;;;;;;;4923398;29;20223;-89
2023/03/05 08:46:15;;;;;;;4.73;1.27;;;;;;;;;;4924355;28;20335;-88
2023/03/05 08:48:41;;;;;;;0.70;0.70;;;;;;;;;;4968839;28;20230;-87
2023/03/05 08:51:08;;;;;;;1.70;1.00;;;;;;;;;;4918124;28;20241;-87
2023/03/05 08:53:33;;;;;;;2.77;1.10;;;;;;;;;;4926794;28;20225;-88
2023/03/05 08:55:59;;;;;;;2.80;1.40;;;;;;;;;;4939511;28;20946;-88
2023/03/05 08:58:25;;;;;;;4.27;1.20;;;;;;;;;;4935712;28;20601;-86
2023/03/05 09:00:51;;;;;;;1.57;1.00;;;;;;;;;;4937790;28;20235;-88
2023/03/05 09:03:19;;;;;;;1.60;1.00;;;;;;;;;;4932391;28;20265;-87
2023/03/05 09:05:47;;;;;;;1.43;0.97;;;;;;;;;;4924215;28;20743;-89
2023/03/05 09:08:13;;;;;;;3.13;1.43;;;;;;;;;;4941488;28;20218;-87
2023/03/05 09:10:46;;;;;;;2.00;0.90;;;;;;;;;;4958590;28;20230;-86
2023/03/05 09:13:11;;;;;;;0.90;0.80;;;;;;;;;;4926591;28;20230;-88
2023/03/05 09:15:37;;;;;;;2.47;1.80;;;;;;;;;;4951581;28;20219;-87
2023/03/05 09:18:03;;;;;;;2.00;1.30;;;;;;;;;;4919372;28;20236;-84
2023/03/05 09:20:35;;;;;;;3.00;1.20;;;;;;;;;;4936282;29;20711;-88
2023/03/05 09:23:03;;;;;;;3.70;1.50;;;;;;;;;;4956065;28;20227;-87
2023/03/05 09:25:29;;;;;;;3.73;1.13;;;;;;;;;;4935682;28;20268;-89
2023/03/05 09:27:54;;;;;;;1.27;0.80;;;;;;;;;;4962665;28;20286;-84
2023/03/05 09:30:22;;;;;;;2.27;1.00;;;;;;;;;;4971621;28;20254;-86
2023/03/05 09:32:49;;;;;;;6.20;4.27;;;;;;;;;;4953123;28;20227;-85
2023/03/05 09:35:17;;;;;;;4.97;2.90;;;;;;;;;;4935318;28;20222;-87
2023/03/05 09:37:43;;;;;;;2.40;1.27;;;;;;;;;;4951431;28;20221;-87
2023/03/05 09:40:13;;;;;;;5.67;3.83;;;;;;;;;;4940319;28;20273;-87
2023/03/05 09:42:54;;;;;;;4.37;2.63;;;;;;;;;;4918782;28;20222;-86
2023/03/05 09:45:35;;;;;;;2.50;1.80;;;;;;;;;;4945881;28;20237;-87
2023/03/05 09:48:17;;;;;;;2.70;1.70;;;;;;;;;;4969238;28;20226;-86
2023/03/05 09:50:50;;;;;;;1.60;1.30;;;;;;;;;;4954782;28;20234;-86
2023/03/05 09:53:27;;;;;;;3.70;2.60;;;;;;;;;;4920924;28;20230;-86
2023/03/05 09:56:03;;;;;;;1.73;1.20;;;;;;;;;;4964048;28;20279;-85
2023/03/05 09:58:34;;;;;;;2.80;1.00;;;;;;;;;;4934016;28;20225;-87
2023/03/05 10:01:02;;;;;;;5.20;3.53;;;;;;;;;;4951145;28;20633;-87
2023/03/05 10:03:44;;;;;;;4.63;3.00;;;;;;;;;;4933660;28;20221;-87
2023/03/05 10:06:13;;;;;;;2.53;1.73;;;;;;;;;;4974306;28;20218;-87
2023/03/05 10:09:07;;;;;;;1.57;1.00;;;;;;;;;;4937062;28;20230;-89
2023/03/05 10:11:46;;;;;;;2.63;1.50;;;;;;;;;;4972888;28;20300;-86
2023/03/05 10:14:23;;;;;;;2.30;0.83;;;;;;;;;;4955291;28;20233;-87
2023/03/05 10:16:59;;;;;;;1.17;0.80;;;;;;;;;;4958590;28;20236;-87
2023/03/05 10:19:42;;;;;;;2.37;0.93;;;;;;;;;;4941523;28;20588;-87
2023/03/05 10:22:18;;;;;;;3.60;1.43;;;;;;;;;;4947263;28;20293;-88
2023/03/05 10:24:52;;;;;;;2.47;1.37;;;;;;;;;;4955537;28;20718;-87
2023/03/05 10:27:32;;;;;;;2.03;1.10;;;;;;;;;;4977472;28;20307;-87
2023/03/05 10:30:18;;;;;;;0.90;0.80;;;;;;;;;;4941300;28;20230;-88
2023/03/05 10:32:55;;;;;;;1.90;0.63;;;;;;;;;;4962310;28;20231;-88
2023/03/05 10:35:32;;;;;;;4.03;1.00;;;;;;;;;;4962314;28;20254;-84
2023/03/05 10:38:08;;;;;;;5.53;2.30;;;;;;;;;;4951853;28;20250;-88
2023/03/05 10:40:41;;;;;;;5.53;2.97;;;;;;;;;;4954388;28;20230;-88
2023/03/05 10:43:34;;;;;;;8.53;6.57;;;;;;;;;;4956434;28;20774;-87
2023/03/05 10:46:00;;;;;;;5.67;3.43;;;;;;;;;;4988655;28;20222;-87
2023/03/05 10:48:49;;;;;;;13.00;7.13;;;;;;;;;;4949586;28;20218;-87
2023/03/05 10:51:59;;;;;;;6.43;5.17;;;;;;;;;;4947186;28;20229;-84
2023/03/05 10:54:29;;;;;;;3.07;1.77;;;;;;;;;;4947110;28;20237;-88
2023/03/05 10:57:19;;;;;;;2.43;2.23;;;;;;;;;;4924626;28;20229;-89
2023/03/05 10:59:53;;;;;;;1.77;1.30;;;;;;;;;;4943849;28;20687;-86
2023/03/05 11:02:19;;;;;;;1.53;1.13;;;;;;;;;;4953546;28;20225;-87
2023/03/05 11:04:47;;;;;;;2.83;1.00;;;;;;;;;;4925243;28;20610;-87
2023/03/05 11:07:15;;;;;;;2.40;0.67;;;;;;;;;;4957113;28;20297;-88
2023/03/05 11:10:01;;;;;;;3.17;1.60;;;;;;;;;;4955448;28;20238;-85
2023/03/05 11:12:36;;;;;;;2.57;0.97;;;;;;;;;;4957936;28;20240;-85
2023/03/05 11:15:10;;;;;;;3.57;3.00;;;;;;;;;;4928998;28;20258;-85
2023/03/05 11:17:46;;;;;;;5.03;2.90;;;;;;;;;;4977563;28;20218;-86
2023/03/05 11:20:30;;;;;;;2.33;2.13;;;;;;;;;;4976941;28;20217;-86
2023/03/05 11:23:17;;;;;;;1.70;1.50;;;;;;;;;;4960956;28;20218;-88
2023/03/05 11:26:00;;;;;;;1.27;1.00;;;;;;;;;;4975605;28;20261;-87
2023/03/05 11:28:26;;;;;;;1.07;1.00;;;;;;;;;;4979924;28;20902;-85
2023/03/05 11:30:59;;;;;;;2.37;1.13;;;;;;;;;;4945924;28;20242;-83
2023/03/05 11:33:25;;;;;;;0.90;0.77;;;;;;;;;;4965025;28;20213;-85
2023/03/05 11:36:12;;;;;;;1.43;0.83;;;;;;;;;;4951579;28;20218;-89
2023/03/05 11:39:07;;;;;;;2.90;0.70;;;;;;;;;;4938733;28;20294;-85
2023/03/05 11:41:51;;;;;;;3.93;3.00;;;;;;;;;;4942016;28;20225;-86
2023/03/05 11:44:44;;;;;;;5.47;3.60;;;;;;;;;;4977520;28;20713;-87
2023/03/05 11:47:26;;;;;;;5.57;3.23;;;;;;;;;;4970571;28;20222;-83
2023/03/05 11:50:02;;;;;;;4.20;2.43;;;;;;;;;;4982539;28;20246;-87
2023/03/05 11:52:33;;;;;;;2.93;1.20;;;;;;;;;;4951543;28;20267;-86
2023/03/05 11:55:09;;;;;;;1.57;1.00;;;;;;;;;;4936189;28;20730;-87
2023/03/05 11:57:43;;;;;;;1.63;0.87;;;;;;;;;;4934389;28;20688;-87
2023/03/05 12:00:15;;;;;;;1.57;0.80;;;;;;;;;;4961903;28;20205;-85
2023/03/05 12:02:48;;;;;;;1.57;1.03;;;;;;;;;;4979259;28;20206;-86
2023/03/05 12:05:14;;;;;;;1.80;1.07;;;;;;;;;;4957699;28;20222;-83
2023/03/05 12:07:41;;;;;;;1.77;1.47;;;;;;;;;;4959253;28;20227;-86
2023/03/05 12:10:14;;;;;;;1.53;1.10;;;;;;;;;;4980894;28;20233;-86
2023/03/05 12:12:47;;;;;;;1.57;0.90;;;;;;;;;;4942364;28;20226;-85
2023/03/05 12:15:35;;;;;;;4.93;0.93;;;;;;;;;;4950278;28;20237;-83
2023/03/05 12:18:22;;;;;;;1.43;0.87;;;;;;;;;;4992937;28;20219;-84
2023/03/05 12:21:27;;;;;;;1.43;1.17;;;;;;;;;;4995431;28;20221;-86
2023/03/05 12:24:00;;;;;;;2.83;1.50;;;;;;;;;;5018740;28;20234;-85
2023/03/05 12:27:08;;;;;;;4.70;3.70;;;;;;;;;;4974403;28;20222;-85
2023/03/05 12:29:37;;;;;;;2.40;1.10;;;;;;;;;;4947069;28;20238;-87
2023/03/05 12:32:02;;;;;;;2.40;1.40;;;;;;;;;;4960449;28;20288;-86
2023/03/05 12:34:37;;;;;;;0.60;0.50;;;;;;;;;;4949085;28;20384;-86
2023/03/05 12:37:24;;;;;;;1.63;0.80;;;;;;;;;;4991802;28;20628;-87
2023/03/05 12:40:07;;;;;;;1.47;0.70;;;;;;;;;;4965654;28;20225;-85
2023/03/05 12:42:32;;;;;;;4.37;0.83;;;;;;;;;;4963648;28;20209;-89
2023/03/05 12:45:18;;;;;;;1.27;0.60;;;;;;;;;;4998648;28;20236;-84
2023/03/05 12:47:47;;;;;;;1.07;0.60;;;;;;;;;;4968775;28;20228;-85
2023/03/05 12:50:38;;;;;;;2.90;1.10;;;;;;;;;;4975957;28;20244;-88
2023/03/05 12:53:10;;;;;;;3.63;2.77;;;;;;;;;;4997746;28;20220;-87
2023/03/05 12:55:39;;;;;;;2.70;0.90;;;;;;;;;;4997920;28;20293;-88
2023/03/05 12:58:18;;;;;;;2.67;1.00;;;;;;;;;;4947349;28;20234;-87
2023/03/05 13:00:48;;;;;;;1.10;0.60;;;;;;;;;;4948525;28;20818;-87
2023/03/05 13:03:31;;;;;;;3.70;1.67;;;;;;;;;;4932326;28;20280;-86
2023/03/05 13:05:58;;;;;;;3.60;1.17;;;;;;;;;;4962237;28;20224;-85
2023/03/05 13:08:34;;;;;;;2.00;0.93;;;;;;;;;;4931947;28;20230;-87
2023/03/05 13:11:17;;;;;;;3.40;1.10;;;;;;;;;;4938635;28;20234;-86
2023/03/05 13:13:43;;;;;;;1.57;0.73;;;;;;;;;;4936568;28;20261;-84
2023/03/05 13:16:20;;;;;;;5.37;3.70;;;;;;;;;;4958195;28;20229;-84
2023/03/05 13:18:48;;;;;;;1.67;1.33;;;;;;;;;;4982878;28;20233;-82
2023/03/05 13:21:16;;;;;;;2.30;1.50;;;;;;;;;;4969554;28;20330;-84
2023/03/05 13:23:58;;;;;;;3.60;2.20;;;;;;;;;;4944120;28;20229;-87
2023/03/05 13:26:28;;;;;;;2.50;0.60;;;;;;;;;;4941588;28;20282;-85
2023/03/05 13:29:17;;;;;;;0.97;0.80;;;;;;;;;;4926728;28;20245;-84
2023/03/05 13:32:16;;;;;;;2.17;1.80;;;;;;;;;;4933125;29;20290;-86
2023/03/05 13:34:43;;;;;;;1.80;0.70;;;;;;;;;;4942034;28;20229;-80
2023/03/05 13:37:21;;;;;;;3.10;1.20;;;;;;;;;;4944074;28;20304;-84
2023/03/05 13:39:57;;;;;;;2.50;0.90;;;;;;;;;;4944805;28;20218;-86
2023/03/05 13:42:23;;;;;;;2.10;0.83;;;;;;;;;;4931402;28;20237;-84
2023/03/05 13:44:56;;;;;;;1.10;0.70;;;;;;;;;;4975646;28;20253;-85
2023/03/05 13:47:22;;;;;;;1.20;0.90;;;;;;;;;;4942988;28;20226;-86
2023/03/05 13:49:58;;;;;;;1.57;1.30;;;;;;;;;;4933194;28;20236;-86
2023/03/05 13:52:31;;;;;;;7.53;3.90;;;;;;;;;;4945896;28;20222;-86
2023/03/05 13:54:57;;;;;;;4.83;2.93;;;;;;;;;;4940382;28;20393;-85
2023/03/05 13:57:42;;;;;;;3.80;1.20;;;;;;;;;;4946237;28;20309;-88
2023/03/05 14:00:28;;;;;;;1.83;0.70;;;;;;;;;;4940522;28;20231;-88
2023/03/05 14:02:54;;;;;;;5.17;3.37;;;;;;;;;;4973943;28;20226;-86
2023/03/05 14:05:20;;;;;;;1.67;0.90;;;;;;;;;;4934726;28;20221;-84
2023/03/05 14:07:49;;;;;;;1.80;0.60;;;;;;;;;;4916711;29;20223;-86
2023/03/05 14:10:37;;;;;;;6.53;3.97;;;;;;;;;;4936062;28;20761;-84
2023/03/05 14:13:05;;;;;;;6.37;4.37;;;;;;;;;;4954837;28;20234;-84
2023/03/05 14:15:33;;;;;;;1.80;1.00;;;;;;;;;;4928666;29;20226;-88
2023/03/05 14:18:11;;;;;;;4.43;3.30;;;;;;;;;;4946756;28;20235;-87
2023/03/05 14:21:00;;;;;;;2.03;1.47;;;;;;;;;;4955433;28;20229;-87
2023/03/05 14:23:42;;;;;;;7.90;5.57;;;;;;;;;;4957452;28;20221;-84
2023/03/05 14:26:26;;;;;;;3.77;2.83;;;;;;;;;;4957531;28;20603;-88
2023/03/05 14:28:54;;;;;;;2.70;1.30;;;;;;;;;;4961580;28;20313;-86
2023/03/05 14:31:20;;;;;;;0.87;0.73;;;;;;;;;;4944080;28;20661;-85
2023/03/05 14:33:45;;;;;;;1.07;0.77;;;;;;;;;;4962805;28;20230;-87
2023/03/05 14:36:12;;;;;;;3.20;0.80;;;;;;;;;;4930487;28;20590;-84
2023/03/05 14:38:39;;;;;;;3.00;2.30;;;;;;;;;;4947600;28;20253;-87
2023/03/05 14:41:34;;;;;;;2.60;2.00;;;;;;;;;;4976683;28;20241;-85
2023/03/05 14:44:00;;;;;;;3.17;1.80;;;;;;;;;;4990702;28;20304;-88
2023/03/05 14:46:28;;;;;;;0.70;0.70;;;;;;;;;;4949396;28;20233;-87
2023/03/05 14:48:53;;;;;;;3.60;1.40;;;;;;;;;;4927154;28;20302;-87
2023/03/05 14:51:19;;;;;;;2.17;1.80;;;;;;;;;;4925893;28;20226;-86
2023/03/05 14:53:45;;;;;;;2.63;1.70;;;;;;;;;;4934952;28;20233;-84
2023/03/05 14:56:25;;;;;;;5.63;2.03;;;;;;;;;;4960704;28;20218;-87
2023/03/05 14:58:50;;;;;;;2.43;1.23;;;;;;;;;;4944283;28;20806;-86
2023/03/05 15:01:16;;;;;;;1.40;1.20;;;;;;;;;;4943170;28;20222;-87
2023/03/05 15:03:41;;;;;;;1.37;0.90;;;;;;;;;;4951091;28;20608;-89